Terminal Aerodrome Forecast
Issued by NWS Grand Junction, CO

Home | Current Version | Previous Version | Text Only | Print | Product List | Glossary On
Versions: 1 2 3 4 5 6 7 8 9 10 11 12 13
000
FTUS45 KGJT 292328
TAFGJT
TAF
KGJT 292328Z 3000/3024 33006KT P6SM SCT120
     FM300200 04005KT P6SM FEW120
     FM300500 11008KT P6SM SKC
     FM301600 14007KT P6SM SKC
     FM302000 30006KT P6SM SCT120=

USA.gov is the U.S. government's official web portal to all federal, state and local government web resources and services.